createdAt,value
2024-02-29T00:00:19.183Z,6.32
2024-02-29T00:03:10.279Z,6.28
2024-02-29T00:05:38.507Z,6.27
2024-02-29T00:08:07.411Z,6.28
2024-02-29T00:10:35.355Z,6.28
2024-02-29T00:13:03.399Z,6.28
2024-02-29T00:15:31.575Z,6.27
2024-02-29T00:17:59.514Z,6.29
2024-02-29T00:20:27.480Z,6.40
2024-02-29T00:22:55.450Z,6.49
2024-02-29T00:25:23.391Z,6.58
2024-02-29T00:27:51.311Z,6.63
2024-02-29T00:30:19.716Z,6.64
2024-02-29T00:32:48.220Z,6.66
2024-02-29T00:35:16.258Z,6.66
2024-02-29T00:37:44.282Z,6.71
2024-02-29T00:40:12.752Z,6.76
2024-02-29T00:42:40.819Z,6.75
2024-02-29T00:45:09.375Z,6.68
2024-02-29T00:47:37.342Z,6.57
2024-02-29T00:50:05.997Z,6.53
2024-02-29T00:52:33.937Z,6.53
2024-02-29T00:55:03.624Z,6.53
2024-02-29T00:57:31.722Z,6.51
2024-02-29T00:59:59.704Z,6.44
2024-02-29T01:02:27.721Z,6.38
2024-02-29T01:04:55.681Z,6.34
2024-02-29T01:07:24.137Z,6.26
2024-02-29T01:09:52.335Z,6.20
2024-02-29T01:12:20.389Z,6.18
2024-02-29T01:14:48.273Z,6.16
2024-02-29T01:17:16.194Z,6.21
2024-02-29T01:19:46.969Z,6.26
2024-02-29T01:22:17.923Z,6.29
2024-02-29T01:24:46.203Z,6.29
2024-02-29T01:27:14.285Z,6.28
2024-02-29T01:29:42.242Z,6.29
2024-02-29T01:32:19.030Z,6.27
2024-02-29T01:34:53.845Z,6.24
2024-02-29T01:37:21.773Z,6.21
2024-02-29T01:39:49.812Z,6.23
2024-02-29T01:42:17.978Z,6.21
2024-02-29T01:44:57.064Z,6.22
2024-02-29T01:47:26.063Z,6.24
2024-02-29T01:49:59.205Z,6.26
2024-02-29T01:52:28.109Z,6.25
2024-02-29T01:54:56.089Z,6.24
2024-02-29T01:57:25.216Z,6.26
2024-02-29T01:59:53.560Z,6.28
2024-02-29T02:02:21.492Z,6.30
2024-02-29T02:04:49.484Z,6.29
2024-02-29T02:07:17.377Z,6.24
2024-02-29T02:09:47.247Z,6.22
2024-02-29T02:12:15.411Z,6.23
2024-02-29T02:14:44.802Z,6.27
2024-02-29T02:17:12.949Z,6.26
2024-02-29T02:19:41.755Z,6.30
2024-02-29T02:22:10.919Z,6.34
2024-02-29T02:24:39.079Z,6.37
2024-02-29T02:27:07.284Z,6.45
2024-02-29T02:29:35.244Z,6.46
2024-02-29T02:32:06.003Z,6.45
2024-02-29T02:34:34.617Z,6.48
2024-02-29T02:37:02.600Z,6.49
2024-02-29T02:39:30.679Z,6.49
2024-02-29T02:41:58.639Z,6.48
2024-02-29T02:44:26.515Z,6.49
2024-02-29T02:46:54.427Z,6.52
2024-02-29T02:49:22.379Z,6.55
2024-02-29T02:51:50.308Z,6.62
2024-02-29T02:54:18.360Z,6.68
2024-02-29T02:56:46.313Z,6.72
2024-02-29T02:59:14.233Z,6.73
2024-02-29T03:01:42.329Z,6.69
2024-02-29T03:04:10.307Z,6.61
2024-02-29T03:06:38.542Z,6.50
2024-02-29T03:09:09.088Z,6.40
2024-02-29T03:11:37.137Z,6.27
2024-02-29T03:14:05.685Z,6.21
2024-02-29T03:16:35.737Z,6.19
2024-02-29T03:19:06.132Z,6.21
2024-02-29T03:21:34.265Z,6.25
2024-02-29T03:24:02.373Z,6.28
2024-02-29T03:26:30.347Z,6.31
2024-02-29T03:28:58.335Z,6.33
2024-02-29T03:31:26.405Z,6.35
2024-02-29T03:33:54.719Z,6.36
2024-02-29T03:36:22.858Z,6.37
2024-02-29T03:38:50.984Z,6.31
2024-02-29T03:41:19.550Z,6.23
2024-02-29T03:43:47.490Z,6.15
2024-02-29T03:46:15.500Z,6.05
2024-02-29T03:48:43.719Z,6.01
2024-02-29T03:51:11.850Z,5.98
2024-02-29T03:53:39.814Z,5.92
2024-02-29T03:56:07.972Z,5.88
2024-02-29T03:58:36.011Z,5.92
2024-02-29T04:01:06.821Z,5.99
2024-02-29T04:03:35.009Z,6.05
2024-02-29T04:06:03.050Z,6.08
2024-02-29T04:08:31.223Z,6.11
2024-02-29T04:10:59.590Z,6.09
2024-02-29T04:13:27.502Z,6.07
2024-02-29T04:15:55.582Z,6.08
2024-02-29T04:18:23.628Z,6.02
2024-02-29T04:20:51.830Z,6.01
2024-02-29T04:23:19.803Z,6.01
2024-02-29T04:25:47.750Z,6.04
2024-02-29T04:28:15.993Z,6.08
2024-02-29T04:30:44.499Z,6.12
2024-02-29T04:33:13.153Z,6.13
2024-02-29T04:35:41.407Z,6.14
2024-02-29T04:38:09.435Z,6.14
2024-02-29T04:40:37.434Z,6.12
2024-02-29T04:43:05.560Z,6.07
2024-02-29T04:45:34.347Z,6.03
2024-02-29T04:48:02.481Z,6.01
2024-02-29T04:50:30.578Z,5.99
2024-02-29T04:52:58.448Z,6.01
2024-02-29T04:55:26.683Z,6.03
2024-02-29T04:57:54.640Z,6.05
2024-02-29T05:00:22.805Z,6.06
2024-02-29T05:02:50.702Z,6.08
2024-02-29T05:05:18.619Z,6.09
2024-02-29T05:07:47.326Z,6.09
2024-02-29T05:10:15.448Z,6.09
2024-02-29T05:12:43.514Z,6.08
2024-02-29T05:15:11.532Z,6.07
2024-02-29T05:17:39.602Z,6.07
2024-02-29T05:20:08.521Z,6.06
2024-02-29T05:22:39.616Z,6.04
2024-02-29T05:25:11.052Z,6.05
2024-02-29T05:27:39.325Z,6.07
2024-02-29T05:30:07.774Z,6.10
2024-02-29T05:32:35.860Z,6.09
2024-02-29T05:35:05.134Z,6.04
2024-02-29T05:37:33.389Z,5.99
2024-02-29T05:40:01.482Z,5.95
2024-02-29T05:42:29.667Z,5.91
2024-02-29T05:44:57.942Z,5.91
2024-02-29T05:47:26.007Z,5.90
2024-02-29T05:49:53.960Z,5.87
2024-02-29T05:52:21.970Z,5.85
2024-02-29T05:54:50.664Z,5.86
2024-02-29T05:57:18.816Z,5.86
2024-02-29T05:59:47.218Z,5.82
2024-02-29T06:02:15.152Z,5.81
2024-02-29T06:04:43.343Z,5.82
2024-02-29T06:07:11.328Z,5.83
2024-02-29T06:09:41.286Z,5.87
2024-02-29T06:12:09.914Z,5.92
2024-02-29T06:14:37.843Z,5.95
2024-02-29T06:17:05.723Z,5.96
2024-02-29T06:19:39.591Z,5.97
2024-02-29T06:22:08.419Z,5.98
2024-02-29T06:24:37.297Z,5.99
2024-02-29T06:27:05.643Z,6.00
2024-02-29T06:29:33.631Z,5.99
2024-02-29T06:32:01.909Z,6.00
2024-02-29T06:34:29.953Z,6.02
2024-02-29T06:36:59.155Z,6.07
2024-02-29T06:39:27.347Z,6.11
2024-02-29T06:41:55.332Z,6.11
2024-02-29T06:44:23.344Z,6.10
2024-02-29T06:46:51.401Z,6.08
2024-02-29T06:49:24.209Z,6.10
2024-02-29T06:51:52.415Z,6.16
2024-02-29T06:54:20.368Z,6.18
2024-02-29T06:56:48.288Z,6.19
2024-02-29T06:59:16.667Z,6.24
2024-02-29T07:01:44.683Z,6.27
2024-02-29T07:04:12.755Z,6.30
2024-02-29T07:06:40.772Z,6.35
2024-02-29T07:09:08.954Z,6.40
2024-02-29T07:11:36.859Z,6.45
2024-02-29T07:14:04.857Z,6.46
2024-02-29T07:16:34.104Z,6.51
2024-02-29T07:19:02.112Z,6.56
2024-02-29T07:21:30.263Z,6.52
2024-02-29T07:23:58.224Z,6.45
2024-02-29T07:26:27.354Z,6.40
2024-02-29T07:28:55.381Z,6.39
2024-02-29T07:31:23.497Z,6.37
2024-02-29T07:33:51.692Z,6.37
2024-02-29T07:36:19.646Z,6.39
2024-02-29T07:38:48.028Z,6.36
2024-02-29T07:41:16.183Z,6.32
2024-02-29T07:43:44.314Z,6.33
2024-02-29T07:46:12.385Z,6.38
2024-02-29T07:48:40.431Z,6.46
2024-02-29T07:51:08.415Z,6.51
2024-02-29T07:53:36.376Z,6.59
2024-02-29T07:56:05.885Z,6.65
2024-02-29T07:58:33.843Z,6.74
2024-02-29T08:01:01.940Z,6.82
2024-02-29T08:03:30.025Z,6.84
2024-02-29T08:05:58.196Z,6.88
2024-02-29T08:08:26.157Z,6.95
2024-02-29T08:10:54.081Z,6.99
2024-02-29T08:13:22.182Z,7.04
2024-02-29T08:15:50.312Z,7.08
2024-02-29T08:18:19.183Z,7.10
2024-02-29T08:20:47.195Z,7.09
2024-02-29T08:23:16.928Z,7.12
2024-02-29T08:25:44.970Z,7.14
2024-02-29T08:28:13.136Z,7.13
2024-02-29T08:30:41.431Z,7.13
2024-02-29T08:33:09.500Z,7.17
2024-02-29T08:35:37.472Z,7.23
2024-02-29T08:38:05.779Z,7.30
2024-02-29T08:40:33.997Z,7.34
2024-02-29T08:43:02.152Z,7.41
2024-02-29T08:45:30.140Z,7.45
2024-02-29T08:47:58.184Z,7.48
2024-02-29T08:50:26.185Z,7.56
2024-02-29T08:52:54.101Z,7.60
2024-02-29T08:55:22.204Z,7.61
2024-02-29T08:57:50.387Z,7.63
2024-02-29T09:00:18.804Z,7.62
2024-02-29T09:02:46.742Z,7.60
2024-02-29T09:05:16.527Z,7.66
2024-02-29T09:07:44.545Z,7.63
2024-02-29T09:10:13.927Z,7.57
2024-02-29T09:12:42.380Z,7.52
2024-02-29T09:15:10.854Z,7.50
2024-02-29T09:17:38.817Z,7.54
2024-02-29T09:20:07.763Z,7.60
2024-02-29T09:22:35.670Z,7.63
2024-02-29T09:25:05.186Z,7.62
2024-02-29T09:27:33.460Z,7.64
2024-02-29T09:30:01.504Z,7.69
2024-02-29T09:32:29.955Z,7.68
2024-02-29T09:34:58.043Z,7.69
2024-02-29T09:37:26.172Z,7.70
2024-02-29T09:39:54.202Z,7.74
2024-02-29T09:42:22.357Z,7.75
2024-02-29T09:44:51.547Z,7.74
2024-02-29T09:47:20.803Z,7.79
2024-02-29T09:49:51.169Z,7.84
2024-02-29T09:52:22.614Z,7.91
2024-02-29T09:54:50.639Z,7.96
2024-02-29T09:57:19.060Z,7.98
2024-02-29T09:59:47.172Z,8.01
2024-02-29T10:02:18.960Z,8.03
2024-02-29T10:04:48.027Z,8.04
2024-02-29T10:07:16.188Z,8.07
2024-02-29T10:09:45.576Z,8.13
2024-02-29T10:12:18.643Z,8.21
2024-02-29T10:14:49.802Z,8.20
2024-02-29T10:17:17.649Z,8.23
2024-02-29T10:19:51.799Z,8.27
2024-02-29T10:22:23.238Z,8.30
2024-02-29T10:24:55.930Z,8.32
2024-02-29T10:27:24.067Z,8.33
2024-02-29T10:29:51.938Z,8.36
2024-02-29T10:32:19.850Z,8.38
2024-02-29T10:34:48.603Z,8.38
2024-02-29T10:37:17.177Z,8.43
2024-02-29T10:39:45.105Z,8.46
2024-02-29T10:42:13.282Z,8.50
2024-02-29T10:44:44.148Z,8.55
2024-02-29T10:47:13.306Z,8.54
2024-02-29T10:49:52.582Z,8.55
2024-02-29T10:52:24.403Z,8.60
2024-02-29T10:55:09.563Z,8.65
2024-02-29T10:57:58.267Z,8.72
2024-02-29T11:00:26.185Z,8.76
2024-02-29T11:02:55.133Z,8.72
2024-02-29T11:05:25.094Z,8.76
2024-02-29T11:07:54.044Z,8.79
2024-02-29T11:10:22.008Z,8.86
2024-02-29T11:12:57.247Z,9.03
2024-02-29T11:15:27.465Z,9.15
2024-02-29T11:17:55.656Z,9.22
2024-02-29T11:20:24.404Z,9.34
2024-02-29T11:23:10.575Z,9.33
2024-02-29T11:25:54.968Z,9.34
2024-02-29T11:29:17.940Z,9.30
2024-02-29T11:31:53.780Z,9.29
2024-02-29T11:34:22.616Z,9.30
2024-02-29T11:36:51.536Z,9.34
2024-02-29T11:39:23.795Z,9.38
2024-02-29T11:42:01.843Z,9.35
2024-02-29T11:44:34.526Z,9.29
2024-02-29T11:47:03.374Z,9.25
2024-02-29T11:49:31.307Z,9.28
2024-02-29T11:51:59.556Z,9.31
2024-02-29T11:54:27.522Z,9.33
2024-02-29T11:56:55.784Z,9.35
2024-02-29T11:59:27.369Z,9.35
2024-02-29T12:01:55.314Z,9.34
2024-02-29T12:04:23.451Z,9.37
2024-02-29T12:06:51.614Z,9.37
2024-02-29T12:09:19.506Z,9.31
2024-02-29T12:11:47.639Z,9.27
2024-02-29T12:14:15.833Z,9.32
2024-02-29T12:16:44.797Z,9.43
2024-02-29T12:19:16.728Z,9.47
2024-02-29T12:21:45.306Z,9.54
2024-02-29T12:24:13.330Z,9.61
2024-02-29T12:26:42.542Z,9.62
2024-02-29T12:29:10.691Z,9.61
2024-02-29T12:31:41.733Z,9.62
2024-02-29T12:34:09.559Z,9.61
2024-02-29T12:36:37.474Z,9.63
2024-02-29T12:39:05.926Z,9.64
2024-02-29T12:41:33.829Z,9.64
2024-02-29T12:44:02.710Z,9.59
2024-02-29T12:46:30.738Z,9.55
2024-02-29T12:48:58.620Z,9.52
2024-02-29T12:51:27.808Z,9.56
2024-02-29T12:53:55.743Z,9.57
2024-02-29T12:56:23.606Z,9.56
2024-02-29T12:58:51.480Z,9.53
2024-02-29T13:01:19.450Z,9.51
2024-02-29T13:03:47.841Z,9.48
2024-02-29T13:06:15.775Z,9.48
2024-02-29T13:08:45.086Z,9.50
2024-02-29T13:11:13.118Z,9.53
2024-02-29T13:13:41.389Z,9.58
2024-02-29T13:16:09.566Z,9.64
2024-02-29T13:18:37.389Z,9.70
2024-02-29T13:21:06.351Z,9.71
2024-02-29T13:23:34.459Z,9.69
2024-02-29T13:26:02.750Z,9.68
2024-02-29T13:28:31.018Z,9.67
2024-02-29T13:30:59.023Z,9.67
2024-02-29T13:33:27.835Z,9.65
2024-02-29T13:35:55.818Z,9.59
2024-02-29T13:38:23.717Z,9.60
2024-02-29T13:40:51.607Z,9.59
2024-02-29T13:43:19.585Z,9.58
2024-02-29T13:45:47.651Z,9.55
2024-02-29T13:48:15.577Z,9.54
2024-02-29T13:50:43.684Z,9.54
2024-02-29T13:53:12.007Z,9.52
2024-02-29T13:55:39.916Z,9.55
2024-02-29T13:58:07.936Z,9.56
2024-02-29T14:00:35.898Z,9.59
2024-02-29T14:03:03.947Z,9.63
2024-02-29T14:05:31.891Z,9.63
2024-02-29T14:08:00.037Z,9.64
2024-02-29T14:10:28.002Z,9.64
2024-02-29T14:12:56.646Z,9.64
2024-02-29T14:15:24.745Z,9.66
2024-02-29T14:17:52.840Z,9.68
2024-02-29T14:20:20.692Z,9.68
2024-02-29T14:22:48.818Z,9.64
2024-02-29T14:25:18.508Z,9.63
2024-02-29T14:27:47.057Z,9.67
2024-02-29T14:30:15.536Z,9.69
2024-02-29T14:32:43.760Z,9.70
2024-02-29T14:35:11.796Z,9.70
2024-02-29T14:37:39.694Z,9.70
2024-02-29T14:40:12.136Z,9.70
2024-02-29T14:42:40.637Z,9.71
2024-02-29T14:45:09.592Z,9.76
2024-02-29T14:47:37.795Z,9.83
2024-02-29T14:50:06.492Z,9.88
2024-02-29T14:52:36.328Z,9.87
2024-02-29T14:55:07.656Z,9.81
2024-02-29T14:57:35.560Z,9.79
2024-02-29T15:00:12.762Z,9.79
2024-02-29T15:02:43.138Z,9.77
2024-02-29T15:05:11.073Z,9.71
2024-02-29T15:07:40.249Z,9.68
2024-02-29T15:10:08.968Z,9.67
2024-02-29T15:12:36.808Z,9.68
2024-02-29T15:15:05.518Z,9.71
2024-02-29T15:17:34.389Z,9.74
2024-02-29T15:20:06.058Z,9.74
2024-02-29T15:22:33.934Z,9.73
2024-02-29T15:25:01.877Z,9.69
2024-02-29T15:27:38.893Z,9.67
2024-02-29T15:30:08.276Z,9.66
2024-02-29T15:32:36.490Z,9.64
2024-02-29T15:35:06.139Z,9.65
2024-02-29T15:37:33.973Z,9.63
2024-02-29T15:40:02.302Z,9.61
2024-02-29T15:42:30.438Z,9.54
2024-02-29T15:44:58.284Z,9.49
2024-02-29T15:47:26.375Z,9.49
2024-02-29T15:49:57.557Z,9.48
2024-02-29T15:52:25.471Z,9.46
2024-02-29T15:54:53.364Z,9.45
2024-02-29T15:57:21.418Z,9.42
2024-02-29T15:59:49.324Z,9.39
2024-02-29T16:02:17.181Z,9.37
2024-02-29T16:04:45.138Z,9.37
2024-02-29T16:07:13.070Z,9.39
2024-02-29T16:09:44.036Z,9.41
2024-02-29T16:12:12.425Z,9.41
2024-02-29T16:14:41.640Z,9.39
2024-02-29T16:17:09.678Z,9.38
2024-02-29T16:19:37.499Z,9.37
2024-02-29T16:22:05.432Z,9.35
2024-02-29T16:24:33.460Z,9.30
2024-02-29T16:27:01.384Z,9.31
2024-02-29T16:29:29.788Z,9.31
2024-02-29T16:31:57.659Z,9.31
2024-02-29T16:34:25.576Z,9.32
2024-02-29T16:36:53.748Z,9.32
2024-02-29T16:39:21.696Z,9.31
2024-02-29T16:41:50.308Z,9.30
2024-02-29T16:44:18.239Z,9.29
2024-02-29T16:46:46.526Z,9.27
2024-02-29T16:49:15.137Z,9.29
2024-02-29T16:51:43.025Z,9.31
2024-02-29T16:54:10.906Z,9.34
2024-02-29T16:56:38.935Z,9.34
2024-02-29T16:59:07.145Z,9.34
2024-02-29T17:01:35.282Z,9.33
2024-02-29T17:04:03.256Z,9.32
2024-02-29T17:06:32.508Z,9.32
2024-02-29T17:09:00.464Z,9.33
2024-02-29T17:11:28.519Z,9.34
2024-02-29T17:13:57.424Z,9.35
2024-02-29T17:16:25.448Z,9.36
2024-02-29T17:18:54.671Z,9.37
2024-02-29T17:21:26.314Z,9.40
2024-02-29T17:23:54.408Z,9.42
2024-02-29T17:26:22.285Z,9.41
2024-02-29T17:28:52.594Z,9.40
2024-02-29T17:31:27.894Z,9.40
2024-02-29T17:33:57.258Z,9.42
2024-02-29T17:36:25.447Z,9.42
2024-02-29T17:38:53.475Z,9.42
2024-02-29T17:41:21.745Z,9.42
2024-02-29T17:43:50.032Z,9.41
2024-02-29T17:46:17.920Z,9.37
2024-02-29T17:48:46.316Z,9.35
2024-02-29T17:51:14.385Z,9.32
2024-02-29T17:53:43.221Z,9.28
2024-02-29T17:56:13.704Z,9.25
2024-02-29T17:58:41.610Z,9.22
2024-02-29T18:01:09.580Z,9.21
2024-02-29T18:03:37.541Z,9.20
2024-02-29T18:06:05.853Z,9.20
2024-02-29T18:08:33.753Z,9.23
2024-02-29T18:11:01.616Z,9.30
2024-02-29T18:13:29.572Z,9.30
2024-02-29T18:15:57.539Z,9.34
2024-02-29T18:18:25.628Z,9.34
2024-02-29T18:20:53.576Z,9.28
2024-02-29T18:23:21.427Z,9.17
2024-02-29T18:25:49.946Z,9.12
2024-02-29T18:28:18.029Z,9.07
2024-02-29T18:30:46.148Z,9.03
2024-02-29T18:33:14.123Z,8.97
2024-02-29T18:35:42.534Z,8.91
2024-02-29T18:38:10.444Z,8.90
2024-02-29T18:40:38.939Z,8.88
2024-02-29T18:43:06.865Z,8.86
2024-02-29T18:45:34.773Z,8.83
2024-02-29T18:48:02.693Z,8.82
2024-02-29T18:50:30.528Z,8.80
2024-02-29T18:52:58.353Z,8.78
2024-02-29T18:55:26.267Z,8.77
2024-02-29T18:57:54.281Z,8.74
2024-02-29T19:00:22.463Z,8.73
2024-02-29T19:02:51.814Z,8.70
2024-02-29T19:05:20.048Z,8.65
2024-02-29T19:07:47.931Z,8.60
2024-02-29T19:10:15.805Z,8.57
2024-02-29T19:12:44.097Z,8.55
2024-02-29T19:15:12.111Z,8.54
2024-02-29T19:17:40.073Z,8.52
2024-02-29T19:20:12.042Z,8.53
2024-02-29T19:22:40.268Z,8.49
2024-02-29T19:25:08.808Z,8.47
2024-02-29T19:27:36.672Z,8.45
2024-02-29T19:30:06.910Z,8.45
2024-02-29T19:32:34.914Z,8.45
2024-02-29T19:35:03.970Z,8.40
2024-02-29T19:37:31.986Z,8.34
2024-02-29T19:40:00.414Z,8.29
2024-02-29T19:42:28.451Z,8.26
2024-02-29T19:44:59.301Z,8.24
2024-02-29T19:47:27.288Z,8.24
2024-02-29T19:49:55.143Z,8.23
2024-02-29T19:52:23.142Z,8.22
2024-02-29T19:54:52.947Z,8.17
2024-02-29T19:57:20.985Z,8.15
2024-02-29T19:59:48.937Z,8.12
2024-02-29T20:02:17.792Z,8.10
2024-02-29T20:04:45.724Z,8.10
2024-02-29T20:07:13.871Z,8.08
2024-02-29T20:09:41.809Z,8.07
2024-02-29T20:12:09.728Z,8.06
2024-02-29T20:14:37.545Z,8.05
2024-02-29T20:17:05.373Z,8.02
2024-02-29T20:19:35.309Z,7.97
2024-02-29T20:22:04.577Z,7.91
2024-02-29T20:24:32.692Z,7.85
2024-02-29T20:27:00.544Z,7.84
2024-02-29T20:29:28.489Z,7.81
2024-02-29T20:31:56.489Z,7.82
2024-02-29T20:34:24.576Z,7.83
2024-02-29T20:36:55.628Z,7.88
2024-02-29T20:39:23.481Z,7.89
2024-02-29T20:41:51.368Z,7.90
2024-02-29T20:44:19.385Z,7.94
2024-02-29T20:46:47.443Z,7.96
2024-02-29T20:49:17.203Z,7.98
2024-02-29T20:51:45.724Z,7.98
2024-02-29T20:54:13.711Z,8.01
2024-02-29T20:56:41.896Z,8.02
2024-02-29T20:59:10.135Z,8.04
2024-02-29T21:01:38.034Z,8.05
2024-02-29T21:04:06.035Z,8.06
2024-02-29T21:06:34.029Z,8.07
2024-02-29T21:09:01.898Z,8.10
2024-02-29T21:11:29.829Z,8.11
2024-02-29T21:13:57.900Z,8.11
2024-02-29T21:16:25.963Z,8.10
2024-02-29T21:18:54.113Z,8.13
2024-02-29T21:21:21.981Z,8.17
2024-02-29T21:23:50.400Z,8.19
2024-02-29T21:26:19.139Z,8.21
2024-02-29T21:28:48.574Z,8.23
2024-02-29T21:31:17.161Z,8.26
2024-02-29T21:33:45.283Z,8.32
2024-02-29T21:36:13.152Z,8.35
2024-02-29T21:38:44.556Z,8.32
2024-02-29T21:41:12.456Z,8.29
2024-02-29T21:43:40.572Z,8.26
2024-02-29T21:46:09.196Z,8.27
2024-02-29T21:48:37.066Z,8.25
2024-02-29T21:51:05.127Z,8.25
2024-02-29T21:53:32.952Z,8.25
2024-02-29T21:56:00.878Z,8.27
2024-02-29T21:58:30.885Z,8.30
2024-02-29T22:00:58.858Z,8.33
2024-02-29T22:03:26.791Z,8.39
2024-02-29T22:05:54.748Z,8.40
2024-02-29T22:08:22.919Z,8.43
2024-02-29T22:10:50.994Z,8.43
2024-02-29T22:13:19.090Z,8.44
2024-02-29T22:15:47.057Z,8.45
2024-02-29T22:18:15.699Z,8.47
2024-02-29T22:20:47.223Z,8.50
2024-02-29T22:23:15.378Z,8.51
2024-02-29T22:25:43.924Z,8.56
2024-02-29T22:28:11.944Z,8.56
2024-02-29T22:30:39.818Z,8.56
2024-02-29T22:33:07.813Z,8.53
2024-02-29T22:35:35.826Z,8.53
2024-02-29T22:38:03.930Z,8.52
2024-02-29T22:40:31.912Z,8.51
2024-02-29T22:42:59.921Z,8.53
2024-02-29T22:45:27.801Z,8.57
2024-02-29T22:47:55.733Z,8.60
2024-02-29T22:50:23.753Z,8.60
2024-02-29T22:52:52.126Z,8.61
2024-02-29T22:55:20.015Z,8.64
2024-02-29T22:57:48.343Z,8.66
2024-02-29T23:00:27.077Z,8.66
2024-02-29T23:02:54.937Z,8.64
2024-02-29T23:05:23.334Z,8.63
2024-02-29T23:07:53.399Z,8.63
2024-02-29T23:10:21.513Z,8.64
2024-02-29T23:12:50.353Z,8.64
2024-02-29T23:15:18.970Z,8.67
2024-02-29T23:17:49.483Z,8.70
2024-02-29T23:20:18.358Z,8.66
2024-02-29T23:22:46.513Z,8.64
2024-02-29T23:25:15.034Z,8.61
2024-02-29T23:27:42.976Z,8.61
2024-02-29T23:30:15.062Z,8.62
2024-02-29T23:32:42.872Z,8.66
2024-02-29T23:35:10.818Z,8.65
2024-02-29T23:37:38.655Z,8.66
2024-02-29T23:40:10.688Z,8.69
2024-02-29T23:42:38.624Z,8.73
2024-02-29T23:45:07.170Z,8.77
2024-02-29T23:47:34.970Z,8.77
2024-02-29T23:50:03.846Z,8.76
2024-02-29T23:52:31.861Z,8.78
2024-02-29T23:55:00.709Z,8.76
2024-02-29T23:57:28.642Z,8.80
2024-02-29T23:59:56.597Z,8.79
